(°C)
15°
15°
15°
15°
16°
16°
17°
(°C)
17°
16°
16°
16°
17°
17°
17°
ΝΝΔ
ΝΝΔ
ΝΔ
ΝΔ
ΝΔ
ΔΝΔ
ΔΝΔ
(χλμ / ω)
1-5
1-6
2-6
2-6
2-5
2-6
5-8
(χιλιοστά)
0
0
0
0
0
0
0
(%)
0
0
0
0
0
0
0

Ανύψωση ήλιου

/ -19.7°
sun-icon
UV 9
05:42
19:48
Φθίνων αμφίκυρτος (φάση σελήνης) (315°)
03:37
16:32

METAR για Σαν Ντιέγκο (KSAN)

Χρόνος Συνθήκες Θερμοκρασία/
Σημείο δρόσου
Άνεμος Ορατότητα Καιρός Νέφη Πίεση Αλλαγή Ανεπεξέργαστο
MVFR 15.6°C / 13.3°C 290º 4kt >10km - Overcast 1200ft 1013 - KSAN 260951Z 29004KT 10SM OVC012 16/13 A2993 RMK AO2 SLP133 T01560133
MVFR 16.1°C / 13.3°C 300º 3kt >10km - Overcast 1200ft 1013 - KSAN 260851Z 30003KT 10SM OVC012 16/13 A2993 RMK AO2 SLP136 T01610133 58003
MVFR 16.1°C / 13.3°C 240º 3kt >10km - Overcast 1200ft 1013 - KSAN 260751Z 24003KT 10SM OVC012 16/13 A2994 RMK AO2 SLP137 T01610133 401890128
MVFR 16.1°C / 13.3°C 260º 4kt >10km - Broken Clouds 1200ft 1014 - KSAN 260651Z 26004KT 10SM BKN012 16/13 A2995 RMK AO2 SLP140 T01610133
MVFR 15.6°C / 13.3°C 300º 3kt >10km - Broken Clouds 1200ft 1013 - KSAN 260551Z 30003KT 10SM BKN012 16/13 A2994 RMK AO2 SLP139 T01560133 10189 20156 51012
MVFR 15.6°C / 13.3°C 290º 3kt >10km - Broken Clouds 1200ft - KSAN 260525Z 29003KT 10SM BKN012 16/13 A2994 RMK AO2 T01560133
VFR 15.6°C / 13.3°C variable 0kt >10km - Scattered Clouds 1500ft 1013 - KSAN 260451Z 00000KT 10SM SCT015 16/13 A2994 RMK AO2 SLP138 T01560133
VFR 16.1°C / 13.3°C 300º 4kt >10km - Scattered Clouds 1800ft 1013 - KSAN 260351Z 30004KT 10SM SCT018 16/13 A2992 RMK AO2 SLP132 T01610133
VFR 16.7°C / 12.8°C 290º 5kt >10km - Few Clouds 1800ft
Few Clouds 25000ft
1012 - KSAN 260251Z 29005KT 9SM FEW018 FEW250 17/13 A2991 RMK AO2 SLP128 T01670128 53008
VFR 17.2°C / 12.8°C 270º 7kt >10km - Few Clouds 1800ft 1012 - KSAN 260151Z 27007KT 10SM FEW018 17/13 A2989 RMK AO2 SLP122 T01720128
VFR 18.3°C / 13.3°C 280º 5kt >10km - Few Clouds 1800ft 1011 - KSAN 260051Z 28005KT 10SM FEW018 18/13 A2988 RMK AO2 SLP118 T01830133
VFR 18.9°C / 12.8°C 220º 5kt >10km - Few Clouds 1800ft 1011 - KSAN 252351Z 22005KT 10SM FEW018 19/13 A2988 RMK AO2 SLP119 T01890128 10189 20161 58015
VFR 18.9°C / 12.8°C 230º 7kt >10km - Few Clouds 1800ft 1012 - KSAN 252251Z 23007KT 10SM FEW018 19/13 A2990 RMK AO2 SLP124 T01890128
VFR 18.3°C / 12.8°C 200º 7kt >10km - Scattered Clouds 1800ft 1013 - KSAN 252151Z 20007KT 10SM SCT018 18/13 A2992 RMK AO2 SLP131 T01830128
VFR 17.8°C / 12.8°C 220º 5kt >10km - Scattered Clouds 1800ft - KSAN 252140Z 22005KT 10SM SCT018 18/13 A2992 RMK AO2 T01780128
MVFR 18.3°C / 12.8°C 230º 6kt Gust 18kt >10km - Broken Clouds 1700ft 1013 - KSAN 252051Z 23006G18KT 10SM BKN017 18/13 A2993 RMK AO2 SLP134 T01830128 58004
MVFR 17.2°C / 12.8°C variable 6kt >10km - Overcast 1600ft - KSAN 252007Z VRB06KT 10SM OVC016 17/13 A2994 RMK AO2 T01720128
MVFR 17.2°C / 12.8°C variable 5kt >10km - Overcast 1600ft 1013 - KSAN 251951Z VRB05KT 10SM OVC016 17/13 A2994 RMK AO2 SLP136 T01720128
MVFR 16.7°C / 13.3°C 210º 7kt >10km - Overcast 1200ft 1013 - KSAN 251851Z 21007KT 9SM OVC012 17/13 A2994 RMK AO2 SLP139 T01670133
MVFR 16.1°C / 13.3°C 200º 6kt Gust 18kt >10km - Overcast 1000ft 1013 - KSAN 251751Z 20006G18KT 8SM OVC010 16/13 A2994 RMK AO2 SLP137 T01610133 10161 20128 51015
MVFR 16.1°C / 13.3°C variable 6kt >10km - Overcast 1000ft 1013 - KSAN 251651Z VRB06KT 7SM OVC010 16/13 A2994 RMK AO2 SLP136 T01610133
MVFR 16.1°C / 13.3°C 210º 6kt >10km - Overcast 1000ft 1013 - KSAN 251551Z 21006KT 7SM OVC010 16/13 A2992 RMK AO2 SLP130 T01610133
MVFR 15.6°C / 13.3°C variable 4kt >10km - Broken Clouds 1000ft - KSAN 251505Z VRB04KT 7SM BKN010 16/13 A2990 RMK AO2 T01560133
IFR 15.6°C / 13.3°C variable 0kt >10km - Broken Clouds 900ft 1012 - KSAN 251451Z 00000KT 7SM BKN009 16/13 A2989 RMK AO2 SLP122 T01560133 53012

MVFR

15.6°C / 13.3°C

[Περισσότερο]
Άνεμος 290º 4kt
Ορατότητα >10km
Καιρός -
Νέφη Overcast 1200ft
Πίεση 1013
Αλλαγή -
Ανεπεξέργαστο KSAN 260951Z 29004KT 10SM OVC012 16/13 A2993 RMK AO2 SLP133 T01560133

MVFR

16.1°C / 13.3°C

[Περισσότερο]
Άνεμος 300º 3kt
Ορατότητα >10km
Καιρός -
Νέφη Overcast 1200ft
Πίεση 1013
Αλλαγή -
Ανεπεξέργαστο KSAN 260851Z 30003KT 10SM OVC012 16/13 A2993 RMK AO2 SLP136 T01610133 58003

MVFR

16.1°C / 13.3°C

[Περισσότερο]
Άνεμος 240º 3kt
Ορατότητα >10km
Καιρός -
Νέφη Overcast 1200ft
Πίεση 1013
Αλλαγή -
Ανεπεξέργαστο KSAN 260751Z 24003KT 10SM OVC012 16/13 A2994 RMK AO2 SLP137 T01610133 401890128

MVFR

16.1°C / 13.3°C

[Περισσότερο]
Άνεμος 260º 4kt
Ορατότητα >10km
Καιρός -
Νέφη Broken Clouds 1200ft
Πίεση 1014
Αλλαγή -
Ανεπεξέργαστο KSAN 260651Z 26004KT 10SM BKN012 16/13 A2995 RMK AO2 SLP140 T01610133

MVFR

15.6°C / 13.3°C

[Περισσότερο]
Άνεμος 300º 3kt
Ορατότητα >10km
Καιρός -
Νέφη Broken Clouds 1200ft
Πίεση 1013
Αλλαγή -
Ανεπεξέργαστο KSAN 260551Z 30003KT 10SM BKN012 16/13 A2994 RMK AO2 SLP139 T01560133 10189 20156 51012

MVFR

15.6°C / 13.3°C

[Περισσότερο]
Άνεμος 290º 3kt
Ορατότητα >10km
Καιρός -
Νέφη Broken Clouds 1200ft
Πίεση
Αλλαγή -
Ανεπεξέργαστο KSAN 260525Z 29003KT 10SM BKN012 16/13 A2994 RMK AO2 T01560133

VFR

15.6°C / 13.3°C

[Περισσότερο]
Άνεμος variable 0kt
Ορατότητα >10km
Καιρός -
Νέφη Scattered Clouds 1500ft
Πίεση 1013
Αλλαγή -
Ανεπεξέργαστο KSAN 260451Z 00000KT 10SM SCT015 16/13 A2994 RMK AO2 SLP138 T01560133

VFR

16.1°C / 13.3°C

[Περισσότερο]
Άνεμος 300º 4kt
Ορατότητα >10km
Καιρός -
Νέφη Scattered Clouds 1800ft
Πίεση 1013
Αλλαγή -
Ανεπεξέργαστο KSAN 260351Z 30004KT 10SM SCT018 16/13 A2992 RMK AO2 SLP132 T01610133

VFR

16.7°C / 12.8°C

[Περισσότερο]
Άνεμος 290º 5kt
Ορατότητα >10km
Καιρός -
Νέφη Few Clouds 1800ft
Few Clouds 25000ft
Πίεση 1012
Αλλαγή -
Ανεπεξέργαστο KSAN 260251Z 29005KT 9SM FEW018 FEW250 17/13 A2991 RMK AO2 SLP128 T01670128 53008

VFR

17.2°C / 12.8°C

[Περισσότερο]
Άνεμος 270º 7kt
Ορατότητα >10km
Καιρός -
Νέφη Few Clouds 1800ft
Πίεση 1012
Αλλαγή -
Ανεπεξέργαστο KSAN 260151Z 27007KT 10SM FEW018 17/13 A2989 RMK AO2 SLP122 T01720128

VFR

18.3°C / 13.3°C

[Περισσότερο]
Άνεμος 280º 5kt
Ορατότητα >10km
Καιρός -
Νέφη Few Clouds 1800ft
Πίεση 1011
Αλλαγή -
Ανεπεξέργαστο KSAN 260051Z 28005KT 10SM FEW018 18/13 A2988 RMK AO2 SLP118 T01830133

VFR

18.9°C / 12.8°C

[Περισσότερο]
Άνεμος 220º 5kt
Ορατότητα >10km
Καιρός -
Νέφη Few Clouds 1800ft
Πίεση 1011
Αλλαγή -
Ανεπεξέργαστο KSAN 252351Z 22005KT 10SM FEW018 19/13 A2988 RMK AO2 SLP119 T01890128 10189 20161 58015

VFR

18.9°C / 12.8°C

[Περισσότερο]
Άνεμος 230º 7kt
Ορατότητα >10km
Καιρός -
Νέφη Few Clouds 1800ft
Πίεση 1012
Αλλαγή -
Ανεπεξέργαστο KSAN 252251Z 23007KT 10SM FEW018 19/13 A2990 RMK AO2 SLP124 T01890128

VFR

18.3°C / 12.8°C

[Περισσότερο]
Άνεμος 200º 7kt
Ορατότητα >10km
Καιρός -
Νέφη Scattered Clouds 1800ft
Πίεση 1013
Αλλαγή -
Ανεπεξέργαστο KSAN 252151Z 20007KT 10SM SCT018 18/13 A2992 RMK AO2 SLP131 T01830128

VFR

17.8°C / 12.8°C

[Περισσότερο]
Άνεμος 220º 5kt
Ορατότητα >10km
Καιρός -
Νέφη Scattered Clouds 1800ft
Πίεση
Αλλαγή -
Ανεπεξέργαστο KSAN 252140Z 22005KT 10SM SCT018 18/13 A2992 RMK AO2 T01780128

MVFR

18.3°C / 12.8°C

[Περισσότερο]
Άνεμος 230º 6kt Gust 18kt
Ορατότητα >10km
Καιρός -
Νέφη Broken Clouds 1700ft
Πίεση 1013
Αλλαγή -
Ανεπεξέργαστο KSAN 252051Z 23006G18KT 10SM BKN017 18/13 A2993 RMK AO2 SLP134 T01830128 58004

MVFR

17.2°C / 12.8°C

[Περισσότερο]
Άνεμος variable 6kt
Ορατότητα >10km
Καιρός -
Νέφη Overcast 1600ft
Πίεση
Αλλαγή -
Ανεπεξέργαστο KSAN 252007Z VRB06KT 10SM OVC016 17/13 A2994 RMK AO2 T01720128

MVFR

17.2°C / 12.8°C

[Περισσότερο]
Άνεμος variable 5kt
Ορατότητα >10km
Καιρός -
Νέφη Overcast 1600ft
Πίεση 1013
Αλλαγή -
Ανεπεξέργαστο KSAN 251951Z VRB05KT 10SM OVC016 17/13 A2994 RMK AO2 SLP136 T01720128

MVFR

16.7°C / 13.3°C

[Περισσότερο]
Άνεμος 210º 7kt
Ορατότητα >10km
Καιρός -
Νέφη Overcast 1200ft
Πίεση 1013
Αλλαγή -
Ανεπεξέργαστο KSAN 251851Z 21007KT 9SM OVC012 17/13 A2994 RMK AO2 SLP139 T01670133

MVFR

16.1°C / 13.3°C

[Περισσότερο]
Άνεμος 200º 6kt Gust 18kt
Ορατότητα >10km
Καιρός -
Νέφη Overcast 1000ft
Πίεση 1013
Αλλαγή -
Ανεπεξέργαστο KSAN 251751Z 20006G18KT 8SM OVC010 16/13 A2994 RMK AO2 SLP137 T01610133 10161 20128 51015

MVFR

16.1°C / 13.3°C

[Περισσότερο]
Άνεμος variable 6kt
Ορατότητα >10km
Καιρός -
Νέφη Overcast 1000ft
Πίεση 1013
Αλλαγή -
Ανεπεξέργαστο KSAN 251651Z VRB06KT 7SM OVC010 16/13 A2994 RMK AO2 SLP136 T01610133

MVFR

16.1°C / 13.3°C

[Περισσότερο]
Άνεμος 210º 6kt
Ορατότητα >10km
Καιρός -
Νέφη Overcast 1000ft
Πίεση 1013
Αλλαγή -
Ανεπεξέργαστο KSAN 251551Z 21006KT 7SM OVC010 16/13 A2992 RMK AO2 SLP130 T01610133

MVFR

15.6°C / 13.3°C

[Περισσότερο]
Άνεμος variable 4kt
Ορατότητα >10km
Καιρός -
Νέφη Broken Clouds 1000ft
Πίεση
Αλλαγή -
Ανεπεξέργαστο KSAN 251505Z VRB04KT 7SM BKN010 16/13 A2990 RMK AO2 T01560133

IFR

15.6°C / 13.3°C

[Περισσότερο]
Άνεμος variable 0kt
Ορατότητα >10km
Καιρός -
Νέφη Broken Clouds 900ft
Πίεση 1012
Αλλαγή -
Ανεπεξέργαστο KSAN 251451Z 00000KT 7SM BKN009 16/13 A2989 RMK AO2 SLP122 T01560133 53012

TAF για Σαν Ντιέγκο (KSAN)

From till


From till Wind variable 3kt. Visibility 10km or more. Overcast 1100ft.
From till Wind 230º 9kt. Visibility 10km or more. Scattered Clouds 1500ft.
From till Wind 250º 6kt. Visibility 10km or more. Overcast 1400ft.
From till Wind variable 3kt. Visibility 10km or more. Overcast 1300ft.

Ανεπεξέργαστο: KSAN 260847Z 2609/2712 VRB03KT P6SM OVC011 FM262000 23009KT P6SM SCT015 FM270200 25006KT P6SM OVC014 FM270500 VRB03KT P6SM OVC013

Ραντάρ και πρόγνωση υετού μικρής διάρκειας για Σαν Ντιέγκο

Ψιλοβρέχει
Φως
Μέτρια
Βαριά
Πολύ βαρύ
Χαλάζι

Ο δείκτης θέσης τοποθετείται στο Σαν Ντιέγκο. Αυτή η κινούμενη εικόνα δείχνει την ραντάρ βροχόπτωσης για την τελευταία ώρα, καθώς και 1πρόγνωση h. Το ψιλόβροχο ή το ελαφρύ χιόνι μπορεί να είναι αόρατο για το ραντάρ. Η ένταση της βροχόπτωσης είναι χρωματικά κωδικοποιημένη και κυμαίνεται από γαλάζιο έως πορτοκαλί.

Τρέχουσες εικόνες δορυφόρου για Σαν Ντιέγκο, ΗΠΑ

Η ένδειξη τοποθεσίας τοποθετείται στο Σαν Ντιέγκο. [Περισσότερο]

Οι δορυφορικές εικόνες σε πραγματικό χρόνο συνδυάζουν ορατό φως κατά τη διάρκεια της ημέρας με υπέρυθρη ακτινοβολία κατά τη διάρκεια της νύχτας. Κατά τη διάρκεια της νύχτας, η εικόνα δεν είναι σκοτεινή μιας και η υπέρυθρη ακτινοβολία μπορεί να εντοπίσει τις διαφορές στη θερμοκρασία. Δυστυχώς, είναι δύσκολο να ξεχωρίσουν οι χαμηλές νεφώσεις και η ομίχλη από τις θερμοκρασίες εδάφους και έτσι μπορεί να είναι σχετικά αόρατα κατά τη διάρκεια της νύχτας. Οι εικόνες από τον δορυφόρο Meteosat για την Ευρώπη ενημερώνονται σε πραγματικό χρόνο κάθε 5 λεπτά. Οι εικόνες από τους δορυφόρους GOES-16/GOES-17 (Βόρεια & Λατινική Αμερική) και Himawari (Ασία) ενημερώνονται κάθε 10 λεπτά.

Επιστροφή στην κορυφή